createdAt,value
2022-11-24T00:00:13.274Z,8.43
2022-11-24T00:02:53.223Z,8.50
2022-11-24T00:05:25.479Z,8.13
2022-11-24T00:07:52.442Z,8.02
2022-11-24T00:10:19.079Z,7.97
2022-11-24T00:12:45.730Z,7.92
2022-11-24T00:15:12.725Z,7.88
2022-11-24T00:17:39.319Z,7.92
2022-11-24T00:20:06.512Z,7.82
2022-11-24T00:22:33.277Z,7.72
2022-11-24T00:24:59.868Z,7.77
2022-11-24T00:27:26.414Z,7.84
2022-11-24T00:29:53.088Z,7.96
2022-11-24T00:32:19.709Z,7.91
2022-11-24T00:34:47.062Z,8.03
2022-11-24T00:37:13.624Z,8.04
2022-11-24T00:39:40.135Z,8.21
2022-11-24T00:42:06.815Z,8.40
2022-11-24T00:44:54.670Z,8.25
2022-11-24T00:47:36.390Z,8.02
2022-11-24T00:50:25.266Z,8.70
2022-11-24T00:53:07.362Z,8.95
2022-11-24T00:55:43.571Z,9.09
2022-11-24T00:58:13.152Z,8.93
2022-11-24T01:00:41.391Z,8.96
2022-11-24T01:03:19.247Z,8.85
2022-11-24T01:05:54.399Z,8.79
2022-11-24T01:08:21.200Z,8.81
2022-11-24T01:10:47.755Z,8.99
2022-11-24T01:13:36.553Z,9.25
2022-11-24T01:16:24.567Z,9.04
2022-11-24T01:18:56.719Z,8.99
2022-11-24T01:21:31.838Z,8.62
2022-11-24T01:24:01.539Z,8.68
2022-11-24T01:26:37.506Z,8.89
2022-11-24T01:29:12.365Z,8.82
2022-11-24T01:31:48.040Z,8.70
2022-11-24T01:34:16.423Z,8.59
2022-11-24T01:36:56.231Z,8.45
2022-11-24T01:39:30.590Z,8.31
2022-11-24T01:42:11.725Z,8.38
2022-11-24T01:44:48.370Z,8.61
2022-11-24T01:47:37.981Z,8.39
2022-11-24T01:50:16.930Z,8.67
2022-11-24T01:52:57.096Z,8.43
2022-11-24T01:55:33.727Z,8.23
2022-11-24T01:58:31.363Z,8.74
2022-11-24T02:01:08.849Z,9.32
2022-11-24T02:03:39.822Z,9.40
2022-11-24T02:06:14.003Z,9.46
2022-11-24T02:08:53.149Z,9.33
2022-11-24T02:11:22.720Z,9.19
2022-11-24T02:13:51.855Z,9.34
2022-11-24T02:16:27.212Z,9.13
2022-11-24T02:18:53.979Z,9.23
2022-11-24T02:21:20.573Z,9.32
2022-11-24T02:23:47.116Z,9.68
2022-11-24T02:26:46.141Z,9.83
2022-11-24T02:29:14.354Z,10.22
2022-11-24T02:31:46.877Z,10.24
2022-11-24T02:34:13.354Z,9.83
2022-11-24T02:36:39.946Z,9.85
2022-11-24T02:39:16.375Z,9.76
2022-11-24T02:41:49.424Z,9.88
2022-11-24T02:44:19.725Z,9.98
2022-11-24T02:46:46.375Z,9.64
2022-11-24T02:49:13.541Z,9.43
2022-11-24T02:51:40.080Z,9.60
2022-11-24T02:54:06.807Z,9.54
2022-11-24T02:56:33.592Z,9.31
2022-11-24T03:01:55.123Z,9.31
2022-11-24T03:04:35.075Z,9.31
2022-11-24T03:07:14.724Z,9.05
2022-11-24T03:10:12.425Z,9.31
2022-11-24T03:12:41.389Z,9.64
2022-11-24T03:15:09.772Z,9.69
2022-11-24T03:17:39.430Z,9.63
2022-11-24T03:20:15.340Z,10.15
2022-11-24T03:22:48.051Z,9.91
2022-11-24T03:25:18.715Z,9.74
2022-11-24T03:27:48.651Z,10.00
2022-11-24T03:30:15.775Z,9.83
2022-11-24T03:32:43.514Z,9.86
2022-11-24T03:35:14.007Z,9.91
2022-11-24T03:37:49.554Z,9.93
2022-11-24T03:40:18.413Z,9.89
2022-11-24T03:42:47.086Z,10.01
2022-11-24T03:45:44.177Z,10.14
2022-11-24T03:48:07.710Z,9.90
2022-11-24T03:50:37.300Z,10.04
2022-11-24T03:53:19.512Z,9.89
2022-11-24T03:56:15.438Z,9.99
2022-11-24T03:58:52.140Z,9.94
2022-11-24T04:04:35.119Z,9.95
2022-11-24T04:07:05.499Z,10.15
2022-11-24T04:09:48.222Z,10.24
2022-11-24T04:12:41.505Z,10.23
2022-11-24T04:15:12.909Z,10.46
2022-11-24T04:17:47.744Z,10.73
2022-11-24T04:20:19.646Z,10.90
2022-11-24T04:23:12.506Z,11.16
2022-11-24T04:25:43.516Z,10.84
2022-11-24T04:28:20.029Z,11.10
2022-11-24T04:30:55.772Z,11.00
2022-11-24T04:33:24.119Z,10.89
2022-11-24T04:35:57.843Z,10.98
2022-11-24T04:39:20.096Z,10.80
2022-11-24T04:41:53.636Z,10.89
2022-11-24T04:44:36.192Z,11.06
2022-11-24T04:47:29.350Z,10.82
2022-11-24T04:50:28.551Z,10.87
2022-11-24T04:53:06.181Z,10.92
2022-11-24T04:55:38.087Z,10.87
2022-11-24T04:58:10.457Z,10.76
2022-11-24T05:00:44.390Z,10.80
2022-11-24T05:03:20.298Z,10.76
2022-11-24T05:05:51.912Z,10.99
2022-11-24T05:08:22.540Z,11.01
2022-11-24T05:10:53.580Z,10.97
2022-11-24T05:13:24.822Z,11.11
2022-11-24T05:15:57.748Z,11.29
2022-11-24T05:18:30.815Z,11.17
2022-11-24T05:21:02.683Z,10.98
2022-11-24T05:23:45.134Z,11.11
2022-11-24T05:26:15.530Z,11.08
2022-11-24T05:28:48.215Z,11.16
2022-11-24T05:31:15.088Z,11.48
2022-11-24T05:33:49.198Z,11.60
2022-11-24T05:36:36.297Z,11.10
2022-11-24T05:39:03.493Z,10.84
2022-11-24T05:41:42.274Z,10.42
2022-11-24T05:44:15.058Z,10.32
2022-11-24T05:46:47.725Z,10.26
2022-11-24T05:49:17.182Z,9.68
2022-11-24T05:51:44.502Z,9.51
2022-11-24T05:54:30.104Z,9.05
2022-11-24T05:57:00.641Z,8.86
2022-11-24T05:59:32.552Z,8.87
2022-11-24T06:02:00.861Z,8.66
2022-11-24T06:04:28.878Z,8.82
2022-11-24T06:06:59.316Z,8.82
2022-11-24T06:09:27.238Z,8.84
2022-11-24T06:11:54.319Z,8.79
2022-11-24T06:14:30.069Z,8.34
2022-11-24T06:17:00.031Z,8.09
2022-11-24T06:19:30.917Z,8.15
2022-11-24T06:22:03.658Z,8.54
2022-11-24T06:24:44.270Z,8.41
2022-11-24T06:27:13.383Z,8.14
2022-11-24T06:29:51.255Z,8.29
2022-11-24T06:32:19.709Z,8.15
2022-11-24T06:34:46.774Z,7.96
2022-11-24T06:37:13.857Z,7.91
2022-11-24T06:39:46.850Z,8.11
2022-11-24T06:42:15.079Z,8.36
2022-11-24T06:44:42.274Z,8.20
2022-11-24T06:47:10.489Z,8.06
2022-11-24T06:49:42.982Z,8.07
2022-11-24T06:52:14.841Z,8.29
2022-11-24T06:54:46.244Z,7.99
2022-11-24T06:57:31.923Z,7.93
2022-11-24T07:00:01.047Z,7.80
2022-11-24T07:02:31.064Z,7.97
2022-11-24T07:05:04.871Z,8.18
2022-11-24T07:07:31.498Z,8.31
2022-11-24T07:09:59.014Z,8.31
2022-11-24T07:12:25.609Z,8.12
2022-11-24T07:14:53.100Z,8.08
2022-11-24T07:17:19.942Z,8.21
2022-11-24T07:19:52.698Z,8.13
2022-11-24T07:22:36.272Z,8.51
2022-11-24T07:25:06.233Z,8.67
2022-11-24T07:27:48.829Z,8.69
2022-11-24T07:30:21.749Z,8.69
2022-11-24T07:32:49.236Z,8.84
2022-11-24T07:35:16.247Z,8.83
2022-11-24T07:38:01.172Z,9.12
2022-11-24T07:40:29.560Z,8.95
2022-11-24T07:43:00.605Z,9.08
2022-11-24T07:45:30.954Z,9.12
2022-11-24T07:47:58.196Z,9.09
2022-11-24T07:50:26.786Z,9.02
2022-11-24T07:53:10.406Z,9.22
2022-11-24T07:55:40.517Z,9.23
2022-11-24T07:58:16.472Z,9.40
2022-11-24T08:00:59.329Z,9.40
2022-11-24T08:03:30.881Z,9.47
2022-11-24T08:06:22.757Z,9.74
2022-11-24T08:08:50.773Z,10.22
2022-11-24T08:11:34.758Z,10.46
2022-11-24T08:14:05.081Z,10.26
2022-11-24T08:16:47.556Z,10.77
2022-11-24T08:19:27.444Z,10.82
2022-11-24T08:22:11.662Z,10.90
2022-11-24T08:25:26.925Z,11.04
2022-11-24T08:27:54.058Z,11.47
2022-11-24T08:30:27.498Z,11.94
2022-11-24T08:33:02.735Z,12.01
2022-11-24T08:35:53.027Z,12.11
2022-11-24T08:38:23.994Z,11.90
2022-11-24T08:41:02.804Z,11.71
2022-11-24T08:43:34.734Z,11.98
2022-11-24T08:49:12.893Z,11.99
2022-11-24T08:51:57.547Z,12.13
2022-11-24T08:54:36.188Z,12.55
2022-11-24T08:57:03.245Z,12.46
2022-11-24T08:59:34.075Z,12.78
2022-11-24T09:05:22.482Z,12.75
2022-11-24T09:08:06.975Z,12.69
2022-11-24T09:10:47.037Z,12.64
2022-11-24T09:13:37.637Z,12.86
2022-11-24T09:16:22.084Z,12.96
2022-11-24T09:19:26.658Z,13.02
2022-11-24T09:21:57.606Z,13.15
2022-11-24T09:24:48.983Z,13.30
2022-11-24T09:27:22.604Z,13.45
2022-11-24T09:30:02.451Z,13.51
2022-11-24T09:32:33.206Z,13.59
2022-11-24T09:35:06.654Z,13.61
2022-11-24T09:37:45.862Z,13.58
2022-11-24T09:40:22.357Z,13.43
2022-11-24T09:43:05.163Z,13.40
2022-11-24T09:46:05.021Z,13.58
2022-11-24T09:48:50.494Z,13.67
2022-11-24T09:51:31.090Z,13.78
2022-11-24T09:54:04.997Z,13.97
2022-11-24T09:56:35.073Z,14.04
2022-11-24T09:59:26.847Z,14.12
2022-11-24T10:01:54.546Z,14.22
2022-11-24T10:04:37.938Z,14.25
2022-11-24T10:07:12.770Z,14.10
2022-11-24T10:10:01.066Z,14.27
2022-11-24T10:13:05.298Z,13.99
2022-11-24T10:16:19.235Z,14.08
2022-11-24T10:19:22.818Z,14.02
2022-11-24T10:22:04.370Z,13.76
2022-11-24T10:25:19.537Z,13.62
2022-11-24T10:28:06.358Z,13.54
2022-11-24T10:30:39.533Z,13.27
2022-11-24T10:33:30.204Z,13.34
2022-11-24T10:36:24.451Z,13.50
2022-11-24T10:39:09.636Z,13.32
2022-11-24T10:42:04.323Z,13.42
2022-11-24T10:44:40.606Z,13.31
2022-11-24T10:47:23.023Z,13.44
2022-11-24T10:50:05.221Z,13.25
2022-11-24T10:52:48.406Z,13.06
2022-11-24T10:55:21.673Z,13.03
2022-11-24T10:57:51.767Z,13.08
2022-11-24T11:00:22.542Z,13.34
2022-11-24T11:02:52.256Z,13.24
2022-11-24T11:05:27.732Z,13.36
2022-11-24T11:08:23.337Z,13.28
2022-11-24T11:11:59.088Z,13.37
2022-11-24T11:14:35.781Z,13.36
2022-11-24T11:20:47.201Z,13.29
2022-11-24T11:23:29.117Z,13.30
2022-11-24T11:26:38.595Z,13.22
2022-11-24T11:38:38.475Z,13.34
2022-11-24T11:41:20.664Z,13.29
2022-11-24T11:43:59.334Z,13.20
2022-11-24T11:46:30.355Z,13.39
2022-11-24T11:48:57.313Z,13.34
2022-11-24T11:51:32.316Z,13.43
2022-11-24T11:54:16.598Z,13.52
2022-11-24T11:56:49.998Z,13.53
2022-11-24T12:00:00.976Z,13.39
2022-11-24T12:02:55.959Z,13.48
2022-11-24T12:06:05.377Z,13.61
2022-11-24T12:09:19.230Z,13.60
2022-11-24T12:12:23.025Z,13.57
2022-11-24T12:16:01.607Z,13.60
2022-11-24T12:21:50.152Z,13.78
2022-11-24T12:24:29.712Z,13.78
2022-11-24T12:27:06.004Z,13.85
2022-11-24T12:30:02.229Z,13.82
2022-11-24T12:33:07.498Z,13.87
2022-11-24T12:35:49.382Z,14.03
2022-11-24T12:38:44.080Z,14.11
2022-11-24T12:41:48.386Z,14.12
2022-11-24T12:44:57.230Z,14.01
2022-11-24T12:47:41.877Z,14.03
2022-11-24T12:50:17.569Z,14.02
2022-11-24T12:53:11.367Z,13.94
2022-11-24T12:55:46.330Z,13.92
2022-11-24T12:58:47.888Z,14.15
2022-11-24T13:01:27.643Z,14.11
2022-11-24T13:04:08.575Z,14.11
2022-11-24T13:06:51.403Z,14.09
2022-11-24T13:09:21.264Z,14.16
2022-11-24T13:12:14.652Z,14.13
2022-11-24T13:14:57.420Z,14.13
2022-11-24T13:17:52.480Z,14.19
2022-11-24T13:20:22.234Z,14.21
2022-11-24T13:23:15.153Z,14.23
2022-11-24T13:26:30.517Z,14.36
2022-11-24T13:29:23.840Z,14.26
2022-11-24T13:32:12.063Z,14.14
2022-11-24T13:35:00.092Z,14.10
2022-11-24T13:37:36.851Z,14.17
2022-11-24T13:40:31.787Z,14.23
2022-11-24T13:43:04.158Z,14.07
2022-11-24T13:46:01.952Z,14.21
2022-11-24T13:48:34.570Z,13.87
2022-11-24T13:51:01.919Z,13.85
2022-11-24T13:53:35.562Z,13.87
2022-11-24T13:56:20.505Z,14.05
2022-11-24T13:59:03.331Z,13.95
2022-11-24T14:01:37.076Z,13.98
2022-11-24T14:04:33.746Z,13.96
2022-11-24T14:07:13.091Z,14.00
2022-11-24T14:09:52.400Z,13.83
2022-11-24T14:12:26.674Z,13.95
2022-11-24T14:15:21.078Z,13.85
2022-11-24T14:17:49.105Z,13.74
2022-11-24T14:20:33.381Z,13.96
2022-11-24T14:23:05.619Z,13.97
2022-11-24T14:25:39.693Z,13.90
2022-11-24T14:28:25.289Z,13.70
2022-11-24T14:31:38.484Z,13.76
2022-11-24T14:34:18.647Z,13.81
2022-11-24T14:36:45.757Z,13.84
2022-11-24T14:39:20.522Z,13.76
2022-11-24T14:42:25.359Z,13.80
2022-11-24T14:45:00.774Z,13.63
2022-11-24T14:47:59.319Z,13.57
2022-11-24T14:50:30.907Z,13.33
2022-11-24T14:52:59.401Z,13.03
2022-11-24T14:55:38.443Z,12.94
2022-11-24T14:58:30.292Z,12.93
2022-11-24T15:01:30.716Z,13.03
2022-11-24T15:07:31.549Z,12.85
2022-11-24T15:10:04.495Z,12.85
2022-11-24T15:12:37.712Z,12.89
2022-11-24T15:15:04.477Z,12.93
2022-11-24T15:17:31.425Z,12.92
2022-11-24T15:20:08.150Z,12.84
2022-11-24T15:22:37.761Z,12.45
2022-11-24T15:25:26.194Z,12.40
2022-11-24T15:27:53.511Z,12.34
2022-11-24T15:30:20.322Z,12.09
2022-11-24T15:32:57.745Z,12.01
2022-11-24T15:35:27.569Z,12.11
2022-11-24T15:37:54.349Z,12.12
2022-11-24T15:40:24.379Z,12.20
2022-11-24T15:43:06.346Z,12.32
2022-11-24T15:45:34.517Z,12.46
2022-11-24T15:48:02.774Z,12.94
2022-11-24T15:50:33.037Z,13.24
2022-11-24T15:53:07.038Z,12.92
2022-11-24T15:55:37.808Z,12.37
2022-11-24T15:58:06.346Z,11.96
2022-11-24T16:00:45.905Z,11.70
2022-11-24T16:03:45.921Z,11.55
2022-11-24T16:06:02.571Z,11.54
2022-11-24T16:08:31.008Z,11.40
2022-11-24T16:11:03.733Z,11.36
2022-11-24T16:13:35.105Z,11.33
2022-11-24T16:16:02.111Z,11.22
2022-11-24T16:18:34.295Z,11.26
2022-11-24T16:21:10.606Z,11.12
2022-11-24T16:23:37.496Z,11.11
2022-11-24T16:26:13.075Z,11.04
2022-11-24T16:28:52.530Z,10.98
2022-11-24T16:31:23.097Z,11.01
2022-11-24T16:33:52.850Z,10.89
2022-11-24T16:36:30.827Z,10.74
2022-11-24T16:39:12.176Z,10.63
2022-11-24T16:41:41.275Z,10.62
2022-11-24T16:44:08.443Z,10.67
2022-11-24T16:46:44.751Z,10.61
2022-11-24T16:49:18.805Z,10.57
2022-11-24T16:51:49.048Z,10.63
2022-11-24T16:54:23.974Z,10.60
2022-11-24T16:56:50.655Z,10.50
2022-11-24T16:59:22.151Z,10.44
2022-11-24T17:02:19.083Z,10.48
2022-11-24T17:04:47.451Z,10.43
2022-11-24T17:07:16.635Z,10.47
2022-11-24T17:09:47.370Z,10.36
2022-11-24T17:12:16.916Z,10.38
2022-11-24T17:14:52.687Z,10.30
2022-11-24T17:17:55.111Z,10.26
2022-11-24T17:20:34.492Z,10.11
2022-11-24T17:23:07.554Z,10.09
2022-11-24T17:25:34.505Z,10.06
2022-11-24T17:28:05.167Z,10.01
2022-11-24T17:30:49.387Z,10.05
2022-11-24T17:33:29.183Z,9.99
2022-11-24T17:36:17.950Z,9.94
2022-11-24T17:38:54.510Z,9.89
2022-11-24T17:41:28.486Z,10.13
2022-11-24T17:43:59.426Z,10.02
2022-11-24T17:46:28.063Z,10.07
2022-11-24T17:48:55.214Z,9.87
2022-11-24T17:51:24.350Z,9.69
2022-11-24T17:53:52.477Z,9.68
2022-11-24T17:56:25.364Z,9.64
2022-11-24T17:58:55.467Z,9.51
2022-11-24T18:01:36.260Z,9.51
2022-11-24T18:04:07.623Z,9.54
2022-11-24T18:06:37.644Z,9.50
2022-11-24T18:09:28.545Z,9.44
2022-11-24T18:12:04.721Z,9.38
2022-11-24T18:14:37.373Z,9.37
2022-11-24T18:17:06.635Z,9.37
2022-11-24T18:19:34.047Z,9.49
2022-11-24T18:22:03.858Z,9.57
2022-11-24T18:24:31.850Z,9.90
2022-11-24T18:27:02.234Z,9.85
2022-11-24T18:29:29.272Z,9.66
2022-11-24T18:31:56.047Z,9.66
2022-11-24T18:34:24.874Z,9.56
2022-11-24T18:36:56.013Z,9.69
2022-11-24T18:39:22.776Z,9.59
2022-11-24T18:41:49.521Z,9.57
2022-11-24T18:44:16.375Z,9.47
2022-11-24T18:46:43.060Z,9.37
2022-11-24T18:49:09.912Z,9.45
2022-11-24T18:51:36.777Z,9.23
2022-11-24T18:54:05.650Z,9.15
2022-11-24T18:56:32.588Z,9.15
2022-11-24T18:58:59.280Z,9.03
2022-11-24T19:01:28.384Z,9.34
2022-11-24T19:03:58.194Z,9.59
2022-11-24T19:06:37.542Z,9.52
2022-11-24T19:09:09.971Z,9.25
2022-11-24T19:11:39.057Z,9.30
2022-11-24T19:14:10.363Z,9.44
2022-11-24T19:16:44.456Z,9.49
2022-11-24T19:19:12.793Z,9.62
2022-11-24T19:21:40.560Z,10.04
2022-11-24T19:24:14.714Z,10.09
2022-11-24T19:26:51.460Z,9.99
2022-11-24T19:29:18.357Z,9.82
2022-11-24T19:31:57.435Z,9.91
2022-11-24T19:34:46.439Z,10.21
2022-11-24T19:37:39.033Z,10.09
2022-11-24T19:40:12.836Z,9.88
2022-11-24T19:42:48.591Z,10.31
2022-11-24T19:45:31.631Z,10.30
2022-11-24T19:48:08.743Z,10.13
2022-11-24T19:50:44.962Z,10.34
2022-11-24T19:53:12.418Z,10.00
2022-11-24T19:55:45.179Z,9.67
2022-11-24T19:58:15.740Z,9.32
2022-11-24T20:01:00.683Z,9.05
2022-11-24T20:03:33.917Z,8.92
2022-11-24T20:06:19.872Z,8.75
2022-11-24T20:08:58.817Z,8.64
2022-11-24T20:11:26.178Z,8.55
2022-11-24T20:13:58.230Z,8.80
2022-11-24T20:16:40.958Z,9.19
2022-11-24T20:19:15.847Z,9.65
2022-11-24T20:21:51.988Z,9.33
2022-11-24T20:24:21.982Z,9.08
2022-11-24T20:26:52.340Z,9.00
2022-11-24T20:29:29.226Z,9.35
2022-11-24T20:31:57.767Z,9.70
2022-11-24T20:34:26.186Z,9.24
2022-11-24T20:36:53.241Z,8.98
2022-11-24T20:39:32.976Z,9.19
2022-11-24T20:42:08.527Z,8.82
2022-11-24T20:44:49.524Z,8.76
2022-11-24T20:47:20.750Z,8.83
2022-11-24T20:49:54.068Z,8.58
2022-11-24T20:52:27.951Z,8.53
2022-11-24T20:55:06.445Z,8.37
2022-11-24T20:57:40.849Z,8.74
2022-11-24T21:00:15.719Z,8.79
2022-11-24T21:02:43.219Z,8.79
2022-11-24T21:05:16.965Z,8.64
2022-11-24T21:07:59.751Z,8.44
2022-11-24T21:10:26.294Z,8.33
2022-11-24T21:12:53.065Z,8.33
2022-11-24T21:15:24.354Z,8.17
2022-11-24T21:17:54.651Z,8.16
2022-11-24T21:20:32.965Z,8.08
2022-11-24T21:23:06.824Z,8.01
2022-11-24T21:25:36.816Z,7.88
2022-11-24T21:28:21.043Z,7.94
2022-11-24T21:31:06.237Z,7.84
2022-11-24T21:33:35.693Z,7.92
2022-11-24T21:36:12.549Z,7.77
2022-11-24T21:38:58.526Z,7.73
2022-11-24T21:41:35.504Z,7.68
2022-11-24T21:47:18.336Z,7.53
2022-11-24T21:50:00.356Z,7.60
2022-11-24T21:52:36.142Z,7.58
2022-11-24T21:55:19.986Z,7.63
2022-11-24T21:58:00.673Z,7.66
2022-11-24T22:00:33.008Z,7.61
2022-11-24T22:03:03.048Z,7.40
2022-11-24T22:05:34.652Z,7.40
2022-11-24T22:08:05.567Z,7.56
2022-11-24T22:10:38.587Z,7.52
2022-11-24T22:13:07.125Z,7.51
2022-11-24T22:15:33.774Z,7.49
2022-11-24T22:18:01.551Z,7.46
2022-11-24T22:20:28.272Z,7.72
2022-11-24T22:22:57.149Z,7.89
2022-11-24T22:25:24.017Z,7.85
2022-11-24T22:27:50.996Z,7.86
2022-11-24T22:30:21.338Z,7.97
2022-11-24T22:32:51.085Z,7.82
2022-11-24T22:35:29.826Z,8.44
2022-11-24T22:38:11.654Z,8.07
2022-11-24T22:40:46.082Z,7.77
2022-11-24T22:43:13.397Z,7.69
2022-11-24T22:49:23.664Z,7.54
2022-11-24T22:51:59.211Z,7.56
2022-11-24T22:54:44.021Z,7.71
2022-11-24T22:57:23.295Z,7.68
2022-11-24T23:00:04.915Z,7.71
2022-11-24T23:02:46.734Z,7.60
2022-11-24T23:05:20.930Z,7.70
2022-11-24T23:07:52.674Z,7.77
2022-11-24T23:10:22.470Z,7.68
2022-11-24T23:12:58.222Z,7.66
2022-11-24T23:18:20.692Z,7.58
2022-11-24T23:20:48.442Z,7.61
2022-11-24T23:23:21.524Z,7.82
2022-11-24T23:25:56.108Z,7.83
2022-11-24T23:28:46.803Z,7.73
2022-11-24T23:31:21.174Z,7.65
2022-11-24T23:33:53.811Z,7.69
2022-11-24T23:36:25.860Z,7.59
2022-11-24T23:38:53.044Z,7.69
2022-11-24T23:41:36.182Z,7.64
2022-11-24T23:44:06.225Z,7.79
2022-11-24T23:46:37.366Z,7.73
2022-11-24T23:49:09.927Z,8.20
2022-11-24T23:51:48.376Z,7.91
2022-11-24T23:54:23.417Z,7.83
2022-11-24T23:57:12.389Z,7.81
2022-11-24T23:59:41.149Z,7.74
